Time;durP1;ratioP1;P1;durP2;ratioP2;P2;SDS_P1;SDS_P2;PMS_P1;PMS_P2;Temp;Humidity;BMP_temperature;BMP_pressure;BME280_temperature;BME280_humidity;BME280_pressure;Samples;Min_cycle;Max_cycle;Signal;HPM_P1;HPM_P2
2023/11/01 00:00:06;;;;;;;5.73;3.67;;;11.00;99.90;;;-141.84;100.00;25406.84;4985685;28;20329;-66
2023/11/01 00:02:34;;;;;;;5.30;3.77;;;10.90;99.90;;;-141.84;100.00;31056.78;4982708;28;20334;-65
2023/11/01 00:05:05;;;;;;;4.03;2.80;;;10.90;99.90;;;-141.84;100.00;33927.63;4974728;28;20227;-65
2023/11/01 00:07:33;;;;;;;5.77;2.90;;;10.90;99.90;;;-141.84;100.00;34713.00;4985334;28;20239;-69
2023/11/01 00:10:01;;;;;;;6.95;2.85;;;10.90;99.90;;;-141.84;100.00;38674.88;4984907;28;20699;-66
2023/11/01 00:12:30;;;;;;;4.40;2.67;;;10.90;99.90;;;-141.84;100.00;30506.50;4986449;28;20215;-64
2023/11/01 00:14:58;;;;;;;4.57;2.55;;;10.90;99.90;;;-141.84;100.00;31230.03;4977984;28;20788;-67
2023/11/01 00:17:27;;;;;;;4.90;2.60;;;10.90;99.90;;;-141.84;100.00;29701.59;4985843;28;20318;-66
2023/11/01 00:19:55;;;;;;;4.93;2.63;;;10.90;99.90;;;-141.84;100.00;26870.47;4986025;28;20242;-66
2023/11/01 00:22:25;;;;;;;3.83;2.80;;;10.90;99.90;;;-141.84;100.00;30339.38;4997496;28;20227;-66
2023/11/01 00:24:53;;;;;;;4.93;2.93;;;11.00;99.90;;;-141.84;100.00;26620.03;4986180;28;20290;-65
2023/11/01 00:27:21;;;;;;;3.35;2.88;;;11.00;99.90;;;-141.84;100.00;27389.69;4984317;28;20306;-65
2023/11/01 00:29:49;;;;;;;4.60;3.03;;;11.00;99.90;;;-141.84;100.00;26556.94;4975158;28;20294;-65
2023/11/01 00:32:17;;;;;;;5.37;2.73;;;11.00;99.90;;;-141.84;100.00;26864.38;4965184;28;20282;-65
2023/11/01 00:34:46;;;;;;;6.07;3.10;;;11.00;99.90;;;-141.84;100.00;33552.34;4965970;28;20711;-66
2023/11/01 00:37:14;;;;;;;6.53;2.87;;;11.00;99.90;;;-141.84;100.00;30669.53;4958892;28;20693;-64
2023/11/01 00:39:43;;;;;;;3.80;2.37;;;11.00;99.90;;;-141.84;100.00;24255.03;4966479;28;20212;-65
2023/11/01 00:42:11;;;;;;;3.60;2.60;;;11.10;99.90;;;-141.84;100.00;28585.19;4986390;28;20243;-66
2023/11/01 00:44:40;;;;;;;4.68;2.40;;;11.00;99.90;;;-141.84;100.00;35967.88;4985768;28;20322;-65
2023/11/01 00:47:08;;;;;;;4.10;2.40;;;11.00;99.90;;;-141.84;100.00;46013.16;4978800;28;20258;-64
2023/11/01 00:49:36;;;;;;;3.43;2.27;;;11.00;99.90;;;-141.84;100.00;28966.13;4985356;28;20615;-65
2023/11/01 00:52:05;;;;;;;5.00;2.60;;;11.00;99.90;;;-141.84;100.00;42348.44;4976903;28;20715;-65
2023/11/01 00:54:33;;;;;;;3.27;2.70;;;10.90;99.90;;;-141.84;100.00;32618.34;4985925;28;20207;-65
2023/11/01 00:57:03;;;;;;;4.67;2.37;;;10.90;99.90;;;-141.84;100.00;41825.19;4978445;28;20227;-65
2023/11/01 00:59:31;;;;;;;3.73;2.37;;;10.90;99.90;;;-141.84;100.00;34784.41;4985149;28;20285;-65
2023/11/01 01:02:00;;;;;;;3.37;2.23;;;10.90;99.90;;;-141.84;100.00;47846.78;4985594;28;20274;-66
2023/11/01 01:04:28;;;;;;;2.83;2.00;;;10.90;99.90;;;-141.84;100.00;51516.59;4985646;28;20226;-69
2023/11/01 01:06:56;;;;;;;6.43;2.73;;;10.80;99.90;;;-141.84;100.00;47846.78;4978926;28;20223;-63
2023/11/01 01:09:24;;;;;;;4.53;2.10;;;10.80;99.90;;;-141.84;100.00;58341.03;4985446;28;20274;-67
2023/11/01 01:11:52;;;;;;;3.67;2.20;;;10.80;99.90;;;-141.84;100.00;64124.72;4984674;28;20322;-65
2023/11/01 01:14:22;;;;;;;3.23;2.23;;;10.60;99.90;;;-141.84;100.00;67546.31;4985484;28;20231;-65
2023/11/01 01:16:50;;;;;;;2.93;2.30;;;10.50;99.90;;;-141.84;100.00;76772.88;4985162;28;20223;-65
2023/11/01 01:19:18;;;;;;;2.57;2.33;;;10.60;99.90;;;-141.84;100.00;76245.09;4978779;28;20277;-66
2023/11/01 01:21:47;;;;;;;4.07;2.50;;;10.30;99.90;;;-141.84;100.00;84698.34;4997347;28;20301;-65
2023/11/01 01:24:15;;;;;;;2.23;2.03;;;10.20;99.90;;;-141.84;100.00;92639.44;5004849;28;20293;-65
2023/11/01 01:26:43;;;;;;;4.20;2.30;;;10.10;99.90;;;-141.84;100.00;98738.19;5004394;28;20237;-65
2023/11/01 01:29:12;;;;;;;4.33;2.60;;;10.00;99.90;;;-141.84;100.00;102986.25;4997079;28;20266;-65
2023/11/01 01:31:41;;;;;;;5.73;2.67;;;9.90;99.90;;;-141.84;100.00;106441.06;5004987;28;20776;-65
2023/11/01 01:34:10;;;;;;;4.63;2.80;;;9.80;99.90;;;-141.84;100.00;106706.94;5006476;28;20258;-67
2023/11/01 01:36:38;;;;;;;5.17;2.60;;;9.80;99.90;;;-141.84;100.00;108834.56;4990774;28;20331;-66
2023/11/01 01:39:06;;;;;;;4.20;2.60;;;9.70;99.90;;;-141.84;100.00;112294.34;4959366;28;20633;-67
2023/11/01 01:41:34;;;;;;;4.53;3.00;;;9.60;99.90;;;-141.84;100.00;114957.72;4966530;28;20270;-65
2023/11/01 01:44:02;;;;;;;3.70;2.83;;;9.50;99.90;;;-141.84;100.00;116290.06;4977919;28;20235;-68
2023/11/01 01:46:32;;;;;;;4.50;3.03;;;9.50;99.90;;;-141.84;100.00;117889.44;4986100;28;20239;-66
2023/11/01 01:49:01;;;;;;;3.90;3.00;;;9.40;99.90;;;-141.84;100.00;118956.03;4979356;28;20338;-67
2023/11/01 01:51:30;;;;;;;3.50;3.20;;;9.40;99.90;;;-141.84;100.00;119224.81;4984796;28;20278;-64
2023/11/01 01:53:58;;;;;;;7.30;2.93;;;9.40;99.90;;;-141.84;100.00;119224.81;4984944;28;20319;-66
2023/11/01 01:56:27;;;;;;;3.90;2.87;;;9.40;99.90;;;-141.84;100.00;119224.81;4985169;28;20328;-65
2023/11/01 01:58:56;;;;;;;4.60;2.80;;;9.40;99.90;;;-141.84;100.00;119224.81;4981629;28;20247;-67
2023/11/01 02:01:29;;;;;;;3.47;3.17;;;9.40;99.90;;;-141.84;100.00;119224.81;4984932;28;20846;-66
2023/11/01 02:04:12;;;;;;;6.17;2.90;;;9.40;99.90;;;-141.84;100.00;119224.81;4985746;28;20242;-68
2023/11/01 02:06:40;;;;;;;4.53;3.00;;;9.40;99.90;;;-141.84;100.00;119224.81;4985309;28;20222;-63
2023/11/01 02:09:15;;;;;;;5.43;3.30;;;9.40;99.90;;;-141.84;100.00;119224.81;4979084;28;20313;-67
2023/11/01 02:11:44;;;;;;;3.40;3.10;;;9.40;99.90;;;-141.84;100.00;119224.81;4983941;28;20246;-67
2023/11/01 02:14:13;;;;;;;4.93;2.90;;;9.50;99.90;;;-141.84;100.00;119224.81;4984226;28;20285;-64
2023/11/01 02:16:42;;;;;;;4.77;2.33;;;9.70;99.90;;;-141.84;100.00;114957.72;4984146;28;20309;-66
2023/11/01 02:19:16;;;;;;;4.23;2.30;;;9.80;99.90;;;-141.84;100.00;113093.19;4976695;28;20310;-66
2023/11/01 02:21:44;;;;;;;4.47;2.17;;;10.00;99.90;;;-141.84;100.00;111761.88;4996069;28;20303;-67
2023/11/01 02:24:14;;;;;;;3.80;2.10;;;10.00;99.90;;;-141.84;100.00;112826.88;5003940;28;20701;-67
2023/11/01 02:26:42;;;;;;;2.13;1.83;;;10.00;99.90;;;-141.84;100.00;113093.19;5003345;28;20333;-65
2023/11/01 02:29:11;;;;;;;2.87;1.90;;;10.10;99.90;;;-141.84;100.00;111229.50;4995446;28;20316;-66
2023/11/01 02:31:41;;;;;;;3.40;2.10;;;10.10;99.90;;;-141.84;100.00;109898.81;5002580;28;20317;-66
2023/11/01 02:34:09;;;;;;;1.83;1.70;;;10.10;99.90;;;-141.84;100.00;104846.16;4987816;28;20234;-67
2023/11/01 02:36:38;;;;;;;2.00;1.80;;;10.20;99.90;;;-141.84;100.00;103517.56;4983992;28;20203;-66
2023/11/01 02:39:07;;;;;;;3.00;2.40;;;10.30;99.90;;;-141.84;100.00;101923.81;4956348;28;20234;-65
2023/11/01 02:41:38;;;;;;;2.13;1.93;;;10.40;99.90;;;-141.84;100.00;102720.59;4979862;28;20242;-70
2023/11/01 02:44:08;;;;;;;2.60;1.93;;;10.50;99.90;;;-141.84;100.00;104314.66;4983730;28;20321;-65
2023/11/01 02:46:37;;;;;;;6.03;3.77;;;10.40;99.90;;;-141.84;100.00;100330.69;4983819;28;20235;-66
2023/11/01 02:49:05;;;;;;;6.27;5.20;;;10.40;99.90;;;-141.84;100.00;97676.88;4976683;28;20285;-66
2023/11/01 02:51:33;;;;;;;6.07;4.60;;;10.50;99.90;;;-141.84;100.00;87872.91;4983675;28;20687;-65
2023/11/01 02:54:01;;;;;;;9.37;5.37;;;10.60;99.90;;;-141.84;100.00;88666.94;4983511;28;20235;-67
2023/11/01 02:56:30;;;;;;;7.07;4.63;;;10.60;99.90;;;-141.84;100.00;78884.81;4983606;28;20322;-66
2023/11/01 02:58:59;;;;;;;6.03;4.60;;;10.60;99.90;;;-141.84;100.00;71234.38;4975808;28;20246;-66
2023/11/01 03:01:28;;;;;;;7.17;4.37;;;10.70;99.90;;;-141.84;100.00;79677.06;4983679;28;20223;-66
2023/11/01 03:03:56;;;;;;;6.43;4.23;;;10.70;99.90;;;-141.84;100.00;87079.03;4983937;28;20269;-66
2023/11/01 03:06:24;;;;;;;6.50;3.97;;;10.60;99.90;;;-141.84;100.00;83905.09;4983677;28;20207;-66
2023/11/01 03:08:52;;;;;;;5.30;3.87;;;10.60;99.90;;;-141.84;100.00;87079.03;4983195;28;20326;-65
2023/11/01 03:11:20;;;;;;;4.00;3.50;;;10.60;99.90;;;-141.84;100.00;94229.53;4982095;28;20254;-64
2023/11/01 03:13:49;;;;;;;4.93;3.10;;;10.40;99.90;;;-141.84;100.00;100861.66;4982668;28;20235;-65
2023/11/01 03:16:18;;;;;;;6.30;3.80;;;10.30;99.90;;;-141.84;100.00;104580.41;4967830;28;20235;-65
2023/11/01 03:18:47;;;;;;;5.83;3.33;;;10.20;99.90;;;-141.84;100.00;107770.63;4967974;28;20214;-65
2023/11/01 03:21:15;;;;;;;4.40;3.07;;;10.10;99.90;;;-141.84;100.00;110697.16;4977067;28;20202;-65
2023/11/01 03:23:43;;;;;;;5.00;3.47;;;10.10;99.90;;;-141.84;100.00;112826.88;5007022;28;20671;-66
2023/11/01 03:26:11;;;;;;;5.00;3.17;;;10.10;99.90;;;-141.84;100.00;113093.19;5006565;28;20706;-65
2023/11/01 03:28:39;;;;;;;3.50;2.78;;;10.10;99.90;;;-141.84;100.00;112294.34;5002893;28;20234;-65
2023/11/01 03:31:07;;;;;;;5.03;2.47;;;10.10;99.90;;;-141.84;100.00;112028.13;4979451;28;20314;-65
2023/11/01 03:33:39;;;;;;;4.03;2.60;;;10.20;99.90;;;-141.84;100.00;109100.59;4987904;28;20625;-65
2023/11/01 03:36:08;;;;;;;3.27;2.40;;;10.20;99.90;;;-141.84;100.00;100596.16;4967886;28;20751;-64
2023/11/01 03:38:37;;;;;;;4.53;2.40;;;10.30;99.90;;;-141.84;100.00;102455.00;4983206;28;20355;-66
2023/11/01 03:41:05;;;;;;;2.83;2.50;;;10.30;99.90;;;-141.84;100.00;104048.94;4978316;28;20262;-66
2023/11/01 03:43:34;;;;;;;2.40;2.20;;;10.30;99.90;;;-141.84;100.00;96615.84;4985918;28;20318;-66
2023/11/01 03:46:02;;;;;;;2.80;2.22;;;10.40;99.90;;;-141.84;100.00;92109.53;4986992;28;20251;-64
2023/11/01 03:48:31;;;;;;;3.10;2.10;;;10.50;99.90;;;-141.84;100.00;91049.97;4987000;28;20229;-66
2023/11/01 03:51:00;;;;;;;3.67;2.30;;;10.60;99.90;;;-141.84;100.00;86549.84;4979405;28;20717;-65
2023/11/01 03:53:28;;;;;;;2.20;2.00;;;10.60;99.90;;;-141.84;100.00;87343.63;4986840;28;20273;-67
2023/11/01 03:55:57;;;;;;;3.73;1.80;;;10.60;99.90;;;-141.84;100.00;91844.63;4986669;28;20238;-66
2023/11/01 03:58:25;;;;;;;2.53;2.10;;;10.60;99.90;;;-141.84;100.00;92639.44;4986155;28;20318;-65
2023/11/01 04:00:56;;;;;;;3.83;1.90;;;10.60;99.90;;;-141.84;100.00;96615.84;4986316;28;20330;-65
2023/11/01 04:03:24;;;;;;;3.33;1.87;;;10.60;99.90;;;-141.84;100.00;100330.69;4987229;28;20262;-66
2023/11/01 04:05:53;;;;;;;3.93;2.03;;;10.60;99.90;;;-141.84;100.00;101658.25;4986340;28;20254;-65
2023/11/01 04:08:23;;;;;;;3.85;2.00;;;10.60;99.90;;;-141.84;100.00;102986.25;4986711;28;20239;-65
2023/11/01 04:10:51;;;;;;;4.50;2.00;;;10.50;99.90;;;-141.84;100.00;101923.81;4977196;28;20248;-66
2023/11/01 04:13:20;;;;;;;2.78;1.95;;;10.50;99.90;;;-141.84;100.00;101127.16;4977524;28;20337;-66
2023/11/01 04:15:48;;;;;;;3.33;2.00;;;10.50;99.90;;;-141.84;100.00;96615.84;4986148;28;20299;-65
2023/11/01 04:18:16;;;;;;;2.13;1.90;;;10.50;99.90;;;-141.84;100.00;95289.94;4986509;28;20258;-68
2023/11/01 04:20:45;;;;;;;2.78;1.90;;;10.50;99.90;;;-141.84;100.00;92639.44;4990358;28;20690;-66
2023/11/01 04:23:13;;;;;;;2.37;1.60;;;10.60;99.90;;;-141.84;100.00;92109.53;4998524;28;20643;-67
2023/11/01 04:25:43;;;;;;;2.80;1.83;;;10.60;99.90;;;-141.84;100.00;92109.53;4999816;28;20227;-68
2023/11/01 04:28:11;;;;;;;3.13;1.80;;;10.60;99.90;;;-141.84;100.00;94494.59;4985988;28;20295;-68
2023/11/01 04:30:40;;;;;;;6.13;1.90;;;10.60;99.90;;;-141.84;100.00;91844.63;4986058;28;20207;-66
2023/11/01 04:33:10;;;;;;;2.70;1.60;;;10.70;99.90;;;-141.84;100.00;92374.47;4979240;28;20219;-65
2023/11/01 04:35:38;;;;;;;2.40;1.80;;;10.60;99.90;;;-141.84;100.00;97146.31;4990799;28;20223;-65
2023/11/01 04:38:07;;;;;;;4.73;1.80;;;10.60;99.90;;;-141.84;100.00;86285.31;4967768;28;20403;-66
2023/11/01 04:40:35;;;;;;;2.43;1.80;;;10.70;99.90;;;-141.84;100.00;86549.84;4972801;28;20220;-66
2023/11/01 04:43:05;;;;;;;2.80;1.70;;;10.70;99.90;;;-141.84;100.00;90255.47;4978938;28;20235;-66
2023/11/01 04:45:34;;;;;;;1.97;1.77;;;10.60;99.90;;;-141.84;100.00;94759.69;4986429;28;20203;-66
2023/11/01 04:48:03;;;;;;;4.63;2.20;;;10.70;99.90;;;-141.84;100.00;97146.31;4985893;28;20710;-67
2023/11/01 04:50:32;;;;;;;2.63;1.60;;;10.60;99.90;;;-141.84;100.00;90255.47;4985375;28;20231;-65
2023/11/01 04:53:01;;;;;;;2.50;2.00;;;10.60;99.90;;;-141.84;100.00;92109.53;4978574;28;20227;-66
2023/11/01 04:55:29;;;;;;;3.78;1.80;;;10.70;99.90;;;-141.84;100.00;88931.63;4985731;28;20235;-66
2023/11/01 04:57:57;;;;;;;4.57;1.90;;;10.70;99.90;;;-141.84;100.00;92109.53;4966008;28;20208;-65
2023/11/01 05:00:27;;;;;;;2.27;1.83;;;10.80;99.90;;;-141.84;100.00;91579.72;4966720;28;20235;-66
2023/11/01 05:02:55;;;;;;;4.22;2.20;;;10.80;99.90;;;-141.84;100.00;84433.91;4973225;28;20231;-64
2023/11/01 05:05:24;;;;;;;3.10;1.90;;;10.80;99.90;;;-141.84;100.00;80997.84;4986690;28;20235;-65
2023/11/01 05:07:52;;;;;;;2.57;1.53;;;10.80;99.90;;;-141.84;100.00;83112.00;4969732;28;20243;-64
2023/11/01 05:10:21;;;;;;;3.70;1.88;;;10.80;99.90;;;-141.84;100.00;87079.03;4966839;28;20302;-66
2023/11/01 05:12:49;;;;;;;8.33;6.00;;;10.80;99.90;;;-141.84;100.00;85227.25;4979966;28;20299;-65
2023/11/01 05:15:17;;;;;;;6.33;5.10;;;10.90;99.90;;;-141.84;100.00;78884.81;4980289;28;20215;-66
2023/11/01 05:17:47;;;;;;;3.93;3.00;;;10.90;99.90;;;-141.84;100.00;77564.72;4986599;28;20691;-65
2023/11/01 05:20:15;;;;;;;3.43;2.57;;;10.90;99.90;;;-141.84;100.00;71761.53;4986327;28;20650;-67
2023/11/01 05:22:44;;;;;;;2.53;2.30;;;10.90;99.90;;;-141.84;100.00;77564.72;4995086;28;20249;-65
2023/11/01 05:25:14;;;;;;;3.97;2.10;;;10.80;99.90;;;-141.84;100.00;88137.56;4979629;28;20229;-66
2023/11/01 05:27:43;;;;;;;1.90;1.67;;;10.80;99.90;;;-141.84;100.00;92374.47;4986383;28;20207;-64
2023/11/01 05:30:15;;;;;;;2.90;1.80;;;10.70;99.90;;;-141.84;100.00;98472.84;4986493;28;20605;-65
2023/11/01 05:32:46;;;;;;;1.83;1.70;;;10.60;99.90;;;-141.84;100.00;103251.88;4986415;28;20227;-65
2023/11/01 05:35:16;;;;;;;2.28;2.00;;;10.50;99.90;;;-141.84;100.00;107238.72;4979115;28;20235;-66
2023/11/01 05:37:45;;;;;;;2.30;1.60;;;10.40;99.90;;;-141.84;100.00;109632.72;4983875;28;20743;-66
2023/11/01 05:40:14;;;;;;;2.17;1.90;;;10.30;99.90;;;-141.84;100.00;112294.34;4985486;28;20223;-67
2023/11/01 05:42:43;;;;;;;2.37;1.80;;;10.20;99.90;;;-141.84;100.00;113892.16;4985663;28;20932;-67
2023/11/01 05:45:15;;;;;;;2.70;2.10;;;10.10;99.90;;;-141.84;100.00;115757.06;4980169;28;20213;-67
2023/11/01 05:47:49;;;;;;;3.17;2.70;;;10.10;99.90;;;-141.84;100.00;111495.69;4985929;28;20227;-66
2023/11/01 05:50:24;;;;;;;4.87;2.00;;;10.10;99.90;;;-141.84;100.00;111761.88;4985766;28;20231;-69
2023/11/01 05:52:56;;;;;;;2.20;2.00;;;10.10;99.90;;;-141.84;100.00;108568.56;4985209;28;20235;-67
2023/11/01 05:55:25;;;;;;;3.87;2.10;;;10.00;99.90;;;-141.84;100.00;102720.59;4985689;28;20305;-67
2023/11/01 05:58:11;;;;;;;6.37;3.30;;;10.20;99.90;;;-141.84;100.00;101392.69;4985610;28;20578;-65
2023/11/01 06:00:40;;;;;;;2.50;2.30;;;10.30;99.90;;;-141.84;100.00;99534.38;4986064;28;20231;-64
2023/11/01 06:03:08;;;;;;;3.50;2.00;;;10.30;99.90;;;-141.84;100.00;97676.88;4952003;28;20287;-64
2023/11/01 06:05:38;;;;;;;2.47;2.07;;;10.30;99.90;;;-141.84;100.00;99268.97;4946674;28;20232;-65
2023/11/01 06:08:08;;;;;;;3.27;2.37;;;10.30;99.90;;;-141.84;100.00;103783.25;4958901;28;20236;-65
2023/11/01 06:10:37;;;;;;;4.63;2.30;;;10.30;99.90;;;-141.84;100.00;107770.63;4965726;28;20348;-66
2023/11/01 06:13:07;;;;;;;2.53;2.10;;;10.20;99.90;;;-141.84;100.00;106706.94;4975355;28;20237;-64
2023/11/01 06:15:36;;;;;;;7.77;2.70;;;10.20;99.90;;;-141.84;100.00;106706.94;4986371;28;20218;-66
2023/11/01 06:18:06;;;;;;;2.30;2.10;;;10.20;99.90;;;-141.84;100.00;104314.66;4985471;28;20215;-65
2023/11/01 06:20:35;;;;;;;2.60;1.70;;;10.20;99.90;;;-141.84;100.00;105643.53;4985067;28;20238;-65
2023/11/01 06:23:07;;;;;;;2.63;1.77;;;10.20;99.90;;;-141.84;100.00;110697.16;4989669;28;20288;-65
2023/11/01 06:25:36;;;;;;;4.57;2.20;;;10.10;99.90;;;-141.84;100.00;113359.50;5004634;28;20813;-64
2023/11/01 06:28:04;;;;;;;2.00;1.87;;;10.00;99.90;;;-141.84;100.00;115757.06;5004651;28;20246;-64
2023/11/01 06:30:32;;;;;;;2.47;1.80;;;10.00;99.90;;;-141.84;100.00;117356.25;4988034;28;20286;-65
2023/11/01 06:33:01;;;;;;;7.00;2.17;;;10.00;99.90;;;-141.84;100.00;118156.06;4977724;28;20290;-64
2023/11/01 06:35:29;;;;;;;2.30;2.10;;;10.00;99.90;;;-141.84;100.00;116290.06;4985496;28;20234;-65
2023/11/01 06:37:58;;;;;;;3.30;2.20;;;10.10;99.90;;;-141.84;100.00;112826.88;4986006;28;20232;-65
2023/11/01 06:40:27;;;;;;;3.43;2.23;;;10.20;99.90;;;-141.84;100.00;107770.63;4985284;28;20314;-65
2023/11/01 06:42:55;;;;;;;2.87;2.10;;;10.30;99.90;;;-141.84;100.00;104314.66;4982411;28;20302;-64
2023/11/01 06:45:26;;;;;;;2.90;2.10;;;10.40;99.90;;;-141.84;100.00;96881.06;4982367;28;20298;-64
2023/11/01 06:47:54;;;;;;;2.03;1.80;;;10.60;99.90;;;-141.84;100.00;87343.63;4984234;28;20238;-65
2023/11/01 06:50:23;;;;;;;2.70;2.20;;;10.80;99.90;;;-141.84;100.00;76772.88;4984490;28;20620;-65
2023/11/01 06:52:51;;;;;;;2.97;1.90;;;11.00;99.90;;;-141.84;100.00;73607.09;4984822;28;20235;-65
2023/11/01 06:55:19;;;;;;;2.13;1.93;;;11.10;99.90;;;-141.84;100.00;66229.97;4979559;28;20227;-65
2023/11/01 06:57:49;;;;;;;2.53;1.87;;;11.20;99.90;;;-141.84;100.00;59391.97;4984516;28;20302;-64
2023/11/01 07:00:17;;;;;;;3.83;2.00;;;11.30;99.90;;;-141.84;100.00;67546.31;4970186;28;20236;-65
2023/11/01 07:02:45;;;;;;;3.08;2.20;;;11.30;99.90;;;-141.84;100.00;72816.03;4965965;28;20228;-65
2023/11/01 07:05:14;;;;;;;2.67;1.77;;;11.30;99.90;;;-141.84;100.00;73607.09;4958150;28;20634;-65
2023/11/01 07:07:42;;;;;;;2.25;1.80;;;11.40;99.90;;;-141.84;100.00;72816.03;4965948;28;20267;-65
2023/11/01 07:10:11;;;;;;;3.53;1.90;;;11.40;99.90;;;-141.84;100.00;68336.31;4965185;28;20394;-66
2023/11/01 07:12:39;;;;;;;3.47;2.07;;;11.50;99.90;;;-141.84;100.00;60968.94;4977387;28;20739;-65
2023/11/01 07:15:10;;;;;;;6.55;2.08;;;11.60;99.90;;;-141.84;100.00;63598.59;4978366;28;20262;-65
2023/11/01 07:17:38;;;;;;;3.20;2.20;;;11.60;99.90;;;-141.84;100.00;46275.03;4984803;28;20237;-65
2023/11/01 07:20:09;;;;;;;4.63;2.10;;;11.70;99.90;;;-141.84;100.00;32850.81;4984707;28;20258;-65
2023/11/01 07:22:37;;;;;;;4.00;2.00;;;11.80;99.90;;;-141.84;100.00;34472.28;5004191;28;20261;-64
2023/11/01 07:25:06;;;;;;;3.53;2.10;;;11.90;99.90;;;-141.84;100.00;36708.75;4996595;28;20257;-64
2023/11/01 07:27:34;;;;;;;2.78;2.22;;;11.90;99.90;;;-141.84;99.21;23911.19;5004214;28;20682;-65
2023/11/01 07:30:02;;;;;;;3.45;2.47;;;12.10;99.90;;;-141.84;99.71;24263.19;4990176;28;20270;-65
2023/11/01 07:32:32;;;;;;;4.33;2.13;;;12.10;99.90;;;-141.84;99.88;24869.56;4984238;28;20661;-65
2023/11/01 07:35:02;;;;;;;2.85;2.45;;;12.20;99.90;;;-141.84;100.00;26648.56;4976580;28;20934;-64
2023/11/01 07:37:31;;;;;;;3.38;2.92;;;12.20;99.90;;;-141.84;99.35;23502.28;4985043;28;20448;-65
2023/11/01 07:40:00;;;;;;;3.67;2.00;;;12.30;99.90;;;-141.84;97.61;21659.66;4984483;28;20654;-65
2023/11/01 07:42:28;;;;;;;2.47;1.85;;;12.40;99.90;;;-141.84;98.98;23081.22;4984573;28;20678;-64
2023/11/01 07:44:56;;;;;;;3.97;2.08;;;12.40;99.90;;;-141.84;95.13;20407.34;4981281;28;20675;-64
2023/11/01 07:47:24;;;;;;;2.90;1.73;;;12.40;99.90;;;-141.84;96.95;21049.72;4983693;28;20239;-65
2023/11/01 07:49:54;;;;;;;2.85;1.90;;;12.50;99.90;;;-141.84;99.90;24324.22;4984060;28;20234;-65
2023/11/01 07:52:22;;;;;;;2.63;2.00;;;12.50;99.90;;;-141.84;96.31;20980.59;4984310;28;20227;-65
2023/11/01 07:54:51;;;;;;;2.90;1.80;;;12.50;99.90;;;-141.84;95.46;20437.81;4982856;28;20446;-65
2023/11/01 07:57:19;;;;;;;2.10;1.88;;;12.60;99.90;;;-141.84;97.50;21454.28;4958713;28;20224;-65
2023/11/01 07:59:47;;;;;;;3.13;1.90;;;12.70;99.90;;;-141.84;96.92;21399.41;4965770;28;20243;-65
2023/11/01 08:02:16;;;;;;;1.60;1.50;;;12.60;99.90;;;-141.84;94.44;20189.84;4968106;28;20790;-65
2023/11/01 08:04:44;;;;;;;3.97;2.10;;;12.70;99.90;;;-141.84;96.10;20712.25;4968556;28;20275;-65
2023/11/01 08:07:14;;;;;;;3.38;2.10;;;12.70;99.90;;;-141.84;96.20;20832.19;4961724;28;20227;-65
2023/11/01 08:09:44;;;;;;;2.85;1.83;;;12.80;99.90;;;-141.84;95.54;20521.16;4968517;28;20231;-66
2023/11/01 08:12:12;;;;;;;2.33;1.50;;;12.80;99.90;;;-141.84;92.49;19824.00;4985264;28;20214;-65
2023/11/01 08:14:40;;;;;;;3.05;1.50;;;13.00;99.90;;;-141.84;93.07;19897.16;4988027;28;20342;-66
2023/11/01 08:17:09;;;;;;;4.10;1.58;;;13.00;99.90;;;-141.84;92.63;19919.53;4980857;28;20235;-66
2023/11/01 08:19:39;;;;;;;2.17;1.50;;;13.10;99.90;;;-141.84;92.53;19846.34;4987113;28;20238;-66
2023/11/01 08:22:10;;;;;;;2.25;1.60;;;13.10;99.90;;;-141.84;94.23;20122.78;5002134;28;20306;-66
2023/11/01 08:24:40;;;;;;;1.90;1.40;;;13.20;99.90;;;-141.84;93.66;20061.78;5007664;28;20207;-66
2023/11/01 08:27:09;;;;;;;2.42;1.50;;;13.30;99.90;;;-141.84;93.90;20161.38;4980765;28;20298;-64
2023/11/01 08:29:41;;;;;;;3.53;1.95;;;13.40;99.90;;;-141.84;90.07;19732.53;4993754;28;20330;-65
2023/11/01 08:32:10;;;;;;;2.47;1.60;;;13.40;99.90;;;-141.84;89.97;19689.88;4987259;28;20235;-64
2023/11/01 08:34:38;;;;;;;2.22;1.33;;;13.50;99.90;;;-141.84;90.78;19754.91;4986773;28;20266;-65
2023/11/01 08:37:06;;;;;;;2.28;1.48;;;13.50;99.90;;;-141.84;90.34;19726.44;4979969;28;20637;-65
2023/11/01 08:39:35;;;;;;;2.28;1.35;;;13.50;99.90;;;-141.84;89.00;19679.72;4988243;28;20298;-65
2023/11/01 08:42:05;;;;;;;3.10;1.60;;;13.60;99.90;;;-141.84;90.94;19748.81;4987393;28;20327;-65
2023/11/01 08:44:33;;;;;;;2.63;1.33;;;13.50;99.90;;;-141.84;88.21;19637.03;4987443;28;20334;-65
2023/11/01 08:47:04;;;;;;;2.25;1.60;;;13.70;99.90;;;-141.84;88.48;19635.00;4979016;28;20313;-66
2023/11/01 08:49:33;;;;;;;3.08;1.40;;;13.70;99.90;;;-141.84;85.89;19559.81;4986949;28;20239;-65
2023/11/01 08:52:01;;;;;;;1.65;1.30;;;13.80;99.90;;;-141.84;86.63;19582.16;4986360;28;20238;-64
2023/11/01 08:54:31;;;;;;;1.58;1.45;;;13.80;99.90;;;-141.84;85.24;19549.63;4985778;28;20664;-65
2023/11/01 08:56:59;;;;;;;2.30;1.20;;;13.90;99.90;;;-141.84;86.79;19602.47;4979523;28;20281;-64
2023/11/01 08:59:29;;;;;;;2.33;1.30;;;13.90;99.90;;;-141.84;85.79;19590.28;4985810;28;20243;-64
2023/11/01 09:01:57;;;;;;;1.10;1.00;;;13.90;99.90;;;-141.84;86.04;19563.88;4986927;28;20725;-65
2023/11/01 09:04:40;;;;;;;1.52;1.10;;;13.90;99.90;;;-141.84;89.18;19661.41;4986531;28;20744;-64
2023/11/01 09:07:09;;;;;;;2.03;1.15;;;13.90;99.90;;;-141.84;87.41;19687.84;4977807;28;20238;-65
2023/11/01 09:09:38;;;;;;;2.17;1.30;;;13.90;99.90;;;-141.84;88.43;19608.56;4985271;28;20703;-64
2023/11/01 09:12:07;;;;;;;1.38;1.25;;;13.90;99.90;;;-141.84;88.90;19635.00;4977272;28;20303;-66
2023/11/01 09:14:37;;;;;;;1.40;1.30;;;13.80;99.90;;;-141.84;88.25;19677.66;4981075;28;20733;-65
2023/11/01 09:17:06;;;;;;;1.98;1.25;;;13.80;99.90;;;-141.84;88.03;19632.97;4978038;28;20653;-66
2023/11/01 09:19:34;;;;;;;3.38;1.33;;;13.90;99.90;;;-141.84;87.30;19673.59;4984796;28;20807;-65
2023/11/01 09:22:02;;;;;;;1.85;1.02;;;13.90;99.90;;;-141.84;85.95;19553.72;4981396;28;20303;-65
2023/11/01 09:24:30;;;;;;;2.30;1.00;;;13.90;99.90;;;-141.84;85.81;19616.72;4984559;28;20474;-66
2023/11/01 09:26:58;;;;;;;2.20;1.02;;;13.90;99.90;;;-141.84;86.22;19592.31;4976950;28;20321;-68
2023/11/01 09:29:27;;;;;;;1.20;1.05;;;13.90;99.90;;;-141.84;87.11;19580.13;4980879;28;20688;-63
2023/11/01 09:31:56;;;;;;;1.23;1.13;;;13.90;99.90;;;-141.84;86.54;19545.56;4980157;28;20240;-69
2023/11/01 09:34:24;;;;;;;3.55;1.30;;;13.80;99.90;;;-141.84;87.46;19604.50;4979174;28;20318;-68
2023/11/01 09:36:53;;;;;;;4.78;1.20;;;13.90;99.90;;;-141.84;88.77;19667.50;4985566;28;20207;-64
2023/11/01 09:39:21;;;;;;;2.35;1.30;;;13.80;99.90;;;-141.84;87.28;19602.47;4986224;28;20309;-64
2023/11/01 09:41:55;;;;;;;2.75;1.02;;;13.80;99.90;;;-141.84;88.90;19722.38;4982828;28;20230;-64
2023/11/01 09:44:23;;;;;;;1.98;1.17;;;13.70;99.90;;;-141.84;87.10;19602.47;4977293;28;20215;-64
2023/11/01 09:46:52;;;;;;;2.30;1.30;;;13.80;99.90;;;-141.84;88.64;19639.06;4983541;28;20398;-64
2023/11/01 09:49:22;;;;;;;2.03;1.40;;;13.70;99.90;;;-141.84;87.67;19659.38;4979809;28;20239;-65
2023/11/01 09:51:51;;;;;;;1.88;1.25;;;13.90;99.90;;;-141.84;89.77;19736.59;4983353;28;20266;-65
2023/11/01 09:54:20;;;;;;;2.63;1.60;;;13.90;99.90;;;-141.84;91.53;19901.22;4984063;28;20215;-64
2023/11/01 09:56:48;;;;;;;1.83;1.40;;;13.80;99.90;;;-141.84;93.09;20065.84;4983560;28;20262;-65
2023/11/01 09:59:16;;;;;;;2.28;1.33;;;13.90;99.90;;;-141.84;92.82;20090.25;4974985;28;20258;-64
2023/11/01 10:01:45;;;;;;;3.53;1.25;;;13.90;99.90;;;-141.84;95.46;20693.94;4984759;28;20239;-64
2023/11/01 10:04:13;;;;;;;3.38;1.40;;;14.00;99.90;;;-141.84;94.50;20439.84;4984100;28;20270;-66
2023/11/01 10:06:44;;;;;;;1.60;1.27;;;13.90;99.90;;;-141.84;94.88;20624.84;4983826;28;20207;-66